sensor_id;sensor_type;location;lat;lon;timestamp;P1;durP1;ratioP1;P2;durP2;ratioP2
944;SDS011;459;48.676;9.034;2022-07-10T00:00:47;6.97;;;5.40;;
944;SDS011;459;48.676;9.034;2022-07-10T00:03:12;5.80;;;5.30;;
944;SDS011;459;48.676;9.034;2022-07-10T00:05:38;5.23;;;4.87;;
944;SDS011;459;48.676;9.034;2022-07-10T00:08:03;5.30;;;4.80;;
944;SDS011;459;48.676;9.034;2022-07-10T00:10:29;4.93;;;4.53;;
944;SDS011;459;48.676;9.034;2022-07-10T00:12:54;6.80;;;5.10;;
944;SDS011;459;48.676;9.034;2022-07-10T00:15:20;5.33;;;4.93;;
944;SDS011;459;48.676;9.034;2022-07-10T00:17:45;5.80;;;5.30;;
944;SDS011;459;48.676;9.034;2022-07-10T00:20:11;4.97;;;4.57;;
944;SDS011;459;48.676;9.034;2022-07-10T00:22:37;5.53;;;5.03;;
944;SDS011;459;48.676;9.034;2022-07-10T00:25:06;5.50;;;4.90;;
944;SDS011;459;48.676;9.034;2022-07-10T00:27:31;5.70;;;5.10;;
944;SDS011;459;48.676;9.034;2022-07-10T00:29:57;4.90;;;4.60;;
944;SDS011;459;48.676;9.034;2022-07-10T00:32:22;5.50;;;5.03;;
944;SDS011;459;48.676;9.034;2022-07-10T00:34:47;5.40;;;4.90;;
944;SDS011;459;48.676;9.034;2022-07-10T00:37:14;5.30;;;4.70;;
944;SDS011;459;48.676;9.034;2022-07-10T00:39:39;5.03;;;4.50;;
944;SDS011;459;48.676;9.034;2022-07-10T00:44:33;5.07;;;4.63;;
944;SDS011;459;48.676;9.034;2022-07-10T00:46:58;5.20;;;4.80;;
944;SDS011;459;48.676;9.034;2022-07-10T00:49:24;6.27;;;5.07;;
944;SDS011;459;48.676;9.034;2022-07-10T00:51:49;5.53;;;5.13;;
944;SDS011;459;48.676;9.034;2022-07-10T00:54:14;5.13;;;4.73;;
944;SDS011;459;48.676;9.034;2022-07-10T00:56:40;5.27;;;4.77;;
944;SDS011;459;48.676;9.034;2022-07-10T00:59:07;6.10;;;5.60;;
944;SDS011;459;48.676;9.034;2022-07-10T01:01:33;6.80;;;5.80;;
944;SDS011;459;48.676;9.034;2022-07-10T01:03:59;6.50;;;6.00;;
944;SDS011;459;48.676;9.034;2022-07-10T01:06:24;6.70;;;6.10;;
944;SDS011;459;48.676;9.034;2022-07-10T01:08:49;6.73;;;6.10;;
944;SDS011;459;48.676;9.034;2022-07-10T01:11:15;7.13;;;5.90;;
944;SDS011;459;48.676;9.034;2022-07-10T01:13:42;6.57;;;6.07;;
944;SDS011;459;48.676;9.034;2022-07-10T01:16:07;6.17;;;5.73;;
944;SDS011;459;48.676;9.034;2022-07-10T01:18:32;6.40;;;5.80;;
944;SDS011;459;48.676;9.034;2022-07-10T01:20:58;6.23;;;5.63;;
944;SDS011;459;48.676;9.034;2022-07-10T01:23:23;6.07;;;5.57;;
944;SDS011;459;48.676;9.034;2022-07-10T01:25:49;7.00;;;6.30;;
944;SDS011;459;48.676;9.034;2022-07-10T01:28:15;6.17;;;5.77;;
944;SDS011;459;48.676;9.034;2022-07-10T01:30:41;6.40;;;5.90;;
944;SDS011;459;48.676;9.034;2022-07-10T01:33:06;6.43;;;5.93;;
944;SDS011;459;48.676;9.034;2022-07-10T01:35:31;7.60;;;6.90;;
944;SDS011;459;48.676;9.034;2022-07-10T01:37:56;5.80;;;5.30;;
944;SDS011;459;48.676;9.034;2022-07-10T01:40:24;6.40;;;5.90;;
944;SDS011;459;48.676;9.034;2022-07-10T01:42:49;6.13;;;5.73;;
944;SDS011;459;48.676;9.034;2022-07-10T01:45:15;6.17;;;5.70;;
944;SDS011;459;48.676;9.034;2022-07-10T01:47:41;6.87;;;6.27;;
944;SDS011;459;48.676;9.034;2022-07-10T01:50:06;6.27;;;5.77;;
944;SDS011;459;48.676;9.034;2022-07-10T01:52:32;7.30;;;6.67;;
944;SDS011;459;48.676;9.034;2022-07-10T01:54:57;7.30;;;6.70;;
944;SDS011;459;48.676;9.034;2022-07-10T01:57:22;8.00;;;7.23;;
944;SDS011;459;48.676;9.034;2022-07-10T01:59:48;7.30;;;6.70;;
944;SDS011;459;48.676;9.034;2022-07-10T02:02:13;7.60;;;7.10;;
944;SDS011;459;48.676;9.034;2022-07-10T02:04:38;8.50;;;7.53;;
944;SDS011;459;48.676;9.034;2022-07-10T02:07:07;7.77;;;7.10;;
944;SDS011;459;48.676;9.034;2022-07-10T02:09:32;7.53;;;6.93;;
944;SDS011;459;48.676;9.034;2022-07-10T02:11:57;7.83;;;6.97;;
944;SDS011;459;48.676;9.034;2022-07-10T02:14:22;8.23;;;7.47;;
944;SDS011;459;48.676;9.034;2022-07-10T02:16:47;8.50;;;7.70;;
944;SDS011;459;48.676;9.034;2022-07-10T02:19:12;8.73;;;8.07;;
944;SDS011;459;48.676;9.034;2022-07-10T02:21:38;8.27;;;7.57;;
944;SDS011;459;48.676;9.034;2022-07-10T02:24:03;10.37;;;9.50;;
944;SDS011;459;48.676;9.034;2022-07-10T02:26:28;9.20;;;8.40;;
944;SDS011;459;48.676;9.034;2022-07-10T02:28:53;9.63;;;8.83;;
944;SDS011;459;48.676;9.034;2022-07-10T02:31:19;10.13;;;9.13;;
944;SDS011;459;48.676;9.034;2022-07-10T02:33:44;10.83;;;9.93;;
944;SDS011;459;48.676;9.034;2022-07-10T02:36:09;10.13;;;9.20;;
944;SDS011;459;48.676;9.034;2022-07-10T02:38:34;10.17;;;9.30;;
944;SDS011;459;48.676;9.034;2022-07-10T02:41:03;11.30;;;10.40;;
944;SDS011;459;48.676;9.034;2022-07-10T02:43:28;10.77;;;9.77;;
944;SDS011;459;48.676;9.034;2022-07-10T02:45:53;11.67;;;10.67;;
944;SDS011;459;48.676;9.034;2022-07-10T02:48:18;11.30;;;10.50;;
944;SDS011;459;48.676;9.034;2022-07-10T02:50:44;12.00;;;11.00;;
944;SDS011;459;48.676;9.034;2022-07-10T02:53:09;12.93;;;11.77;;
944;SDS011;459;48.676;9.034;2022-07-10T02:55:34;12.80;;;11.70;;
944;SDS011;459;48.676;9.034;2022-07-10T02:57:59;16.80;;;14.57;;
944;SDS011;459;48.676;9.034;2022-07-10T03:00:25;14.33;;;13.13;;
944;SDS011;459;48.676;9.034;2022-07-10T03:02:51;13.07;;;12.00;;
944;SDS011;459;48.676;9.034;2022-07-10T03:05:29;15.10;;;13.80;;
944;SDS011;459;48.676;9.034;2022-07-10T03:07:54;16.30;;;14.83;;
944;SDS011;459;48.676;9.034;2022-07-10T03:10:19;14.90;;;13.60;;
944;SDS011;459;48.676;9.034;2022-07-10T03:12:45;15.60;;;14.30;;
944;SDS011;459;48.676;9.034;2022-07-10T03:15:10;16.13;;;14.63;;
944;SDS011;459;48.676;9.034;2022-07-10T03:17:35;17.07;;;15.57;;
944;SDS011;459;48.676;9.034;2022-07-10T03:20:00;17.07;;;15.50;;
944;SDS011;459;48.676;9.034;2022-07-10T03:22:26;16.50;;;15.10;;
944;SDS011;459;48.676;9.034;2022-07-10T03:24:52;16.77;;;15.17;;
944;SDS011;459;48.676;9.034;2022-07-10T03:27:17;15.97;;;14.57;;
944;SDS011;459;48.676;9.034;2022-07-10T03:29:42;18.00;;;16.50;;
944;SDS011;459;48.676;9.034;2022-07-10T03:32:07;16.50;;;15.17;;
944;SDS011;459;48.676;9.034;2022-07-10T03:34:32;19.30;;;17.70;;
944;SDS011;459;48.676;9.034;2022-07-10T03:36:59;16.80;;;15.00;;
944;SDS011;459;48.676;9.034;2022-07-10T03:39:25;17.27;;;15.47;;
944;SDS011;459;48.676;9.034;2022-07-10T03:41:50;16.50;;;15.10;;
944;SDS011;459;48.676;9.034;2022-07-10T03:44:16;16.80;;;15.50;;
944;SDS011;459;48.676;9.034;2022-07-10T03:46:42;15.47;;;14.17;;
944;SDS011;459;48.676;9.034;2022-07-10T03:49:07;16.23;;;14.90;;
944;SDS011;459;48.676;9.034;2022-07-10T03:51:32;14.73;;;13.53;;
944;SDS011;459;48.676;9.034;2022-07-10T03:53:57;15.83;;;14.33;;
944;SDS011;459;48.676;9.034;2022-07-10T03:56:22;14.77;;;13.40;;
944;SDS011;459;48.676;9.034;2022-07-10T03:59:06;15.37;;;14.00;;
944;SDS011;459;48.676;9.034;2022-07-10T04:01:31;14.23;;;13.10;;
944;SDS011;459;48.676;9.034;2022-07-10T04:03:56;14.90;;;13.70;;
944;SDS011;459;48.676;9.034;2022-07-10T04:06:22;14.50;;;13.30;;
944;SDS011;459;48.676;9.034;2022-07-10T04:08:47;14.57;;;13.27;;
944;SDS011;459;48.676;9.034;2022-07-10T04:11:12;15.63;;;14.20;;
944;SDS011;459;48.676;9.034;2022-07-10T04:13:37;15.27;;;13.93;;
944;SDS011;459;48.676;9.034;2022-07-10T04:16:03;14.97;;;13.43;;
944;SDS011;459;48.676;9.034;2022-07-10T04:18:28;15.57;;;14.07;;
944;SDS011;459;48.676;9.034;2022-07-10T04:20:53;13.90;;;12.63;;
944;SDS011;459;48.676;9.034;2022-07-10T04:23:18;13.47;;;12.00;;
944;SDS011;459;48.676;9.034;2022-07-10T04:25:43;14.73;;;13.30;;
944;SDS011;459;48.676;9.034;2022-07-10T04:28:08;12.73;;;11.73;;
944;SDS011;459;48.676;9.034;2022-07-10T04:30:37;15.00;;;13.10;;
944;SDS011;459;48.676;9.034;2022-07-10T04:33:02;13.10;;;12.10;;
944;SDS011;459;48.676;9.034;2022-07-10T04:35:27;12.70;;;11.40;;
944;SDS011;459;48.676;9.034;2022-07-10T04:37:52;12.90;;;11.70;;
944;SDS011;459;48.676;9.034;2022-07-10T04:40:18;12.07;;;11.07;;
944;SDS011;459;48.676;9.034;2022-07-10T04:42:43;11.27;;;10.27;;
944;SDS011;459;48.676;9.034;2022-07-10T04:45:08;10.67;;;9.70;;
944;SDS011;459;48.676;9.034;2022-07-10T04:47:33;11.07;;;10.17;;
944;SDS011;459;48.676;9.034;2022-07-10T04:49:59;10.67;;;9.67;;
944;SDS011;459;48.676;9.034;2022-07-10T04:52:24;10.20;;;9.30;;
944;SDS011;459;48.676;9.034;2022-07-10T04:54:49;9.40;;;8.50;;
944;SDS011;459;48.676;9.034;2022-07-10T04:57:14;10.20;;;9.17;;
944;SDS011;459;48.676;9.034;2022-07-10T04:59:39;11.40;;;9.43;;
944;SDS011;459;48.676;9.034;2022-07-10T05:02:05;9.93;;;9.20;;
944;SDS011;459;48.676;9.034;2022-07-10T05:04:30;10.60;;;9.60;;
944;SDS011;459;48.676;9.034;2022-07-10T05:06:55;8.53;;;7.93;;
944;SDS011;459;48.676;9.034;2022-07-10T05:09:20;9.87;;;8.07;;
944;SDS011;459;48.676;9.034;2022-07-10T05:11:46;7.97;;;7.37;;
944;SDS011;459;48.676;9.034;2022-07-10T05:14:11;7.23;;;6.63;;
944;SDS011;459;48.676;9.034;2022-07-10T05:16:37;7.67;;;7.07;;
944;SDS011;459;48.676;9.034;2022-07-10T05:19:02;7.80;;;7.17;;
944;SDS011;459;48.676;9.034;2022-07-10T05:21:27;7.63;;;6.93;;
944;SDS011;459;48.676;9.034;2022-07-10T05:23:52;7.50;;;6.80;;
944;SDS011;459;48.676;9.034;2022-07-10T05:26:17;7.60;;;7.00;;
944;SDS011;459;48.676;9.034;2022-07-10T05:28:43;7.13;;;6.47;;
944;SDS011;459;48.676;9.034;2022-07-10T05:31:08;7.87;;;7.17;;
944;SDS011;459;48.676;9.034;2022-07-10T05:33:33;8.00;;;7.33;;
944;SDS011;459;48.676;9.034;2022-07-10T05:35:58;7.23;;;6.63;;
944;SDS011;459;48.676;9.034;2022-07-10T05:38:24;7.53;;;6.93;;
944;SDS011;459;48.676;9.034;2022-07-10T05:40:49;6.50;;;5.90;;
944;SDS011;459;48.676;9.034;2022-07-10T05:43:15;6.50;;;6.00;;
944;SDS011;459;48.676;9.034;2022-07-10T05:45:40;5.83;;;5.30;;
944;SDS011;459;48.676;9.034;2022-07-10T05:48:05;5.73;;;5.20;;
944;SDS011;459;48.676;9.034;2022-07-10T05:50:31;6.10;;;5.20;;
944;SDS011;459;48.676;9.034;2022-07-10T05:52:56;5.67;;;4.90;;
944;SDS011;459;48.676;9.034;2022-07-10T05:55:22;5.27;;;4.77;;
944;SDS011;459;48.676;9.034;2022-07-10T05:57:47;5.13;;;4.73;;
944;SDS011;459;48.676;9.034;2022-07-10T06:00:13;6.03;;;4.67;;
944;SDS011;459;48.676;9.034;2022-07-10T06:02:38;5.50;;;4.27;;
944;SDS011;459;48.676;9.034;2022-07-10T06:05:03;5.40;;;4.20;;
944;SDS011;459;48.676;9.034;2022-07-10T06:07:29;4.63;;;4.17;;
944;SDS011;459;48.676;9.034;2022-07-10T06:09:54;4.87;;;4.23;;
944;SDS011;459;48.676;9.034;2022-07-10T06:12:19;4.20;;;3.80;;
944;SDS011;459;48.676;9.034;2022-07-10T06:14:44;3.83;;;3.50;;
944;SDS011;459;48.676;9.034;2022-07-10T06:17:09;6.30;;;3.93;;
944;SDS011;459;48.676;9.034;2022-07-10T06:19:35;3.80;;;3.50;;
944;SDS011;459;48.676;9.034;2022-07-10T06:22:00;4.47;;;3.53;;
944;SDS011;459;48.676;9.034;2022-07-10T06:24:44;4.77;;;4.37;;
944;SDS011;459;48.676;9.034;2022-07-10T06:27:09;6.03;;;3.47;;
944;SDS011;459;48.676;9.034;2022-07-10T06:29:34;6.20;;;3.07;;
944;SDS011;459;48.676;9.034;2022-07-10T06:31:59;3.73;;;3.33;;
944;SDS011;459;48.676;9.034;2022-07-10T06:34:25;4.27;;;3.30;;
944;SDS011;459;48.676;9.034;2022-07-10T06:36:50;3.80;;;3.50;;
944;SDS011;459;48.676;9.034;2022-07-10T06:39:15;4.13;;;3.73;;
944;SDS011;459;48.676;9.034;2022-07-10T06:41:40;5.00;;;3.60;;
944;SDS011;459;48.676;9.034;2022-07-10T06:44:05;5.43;;;4.47;;
944;SDS011;459;48.676;9.034;2022-07-10T06:46:31;6.33;;;3.30;;
944;SDS011;459;48.676;9.034;2022-07-10T06:48:57;3.23;;;2.93;;
944;SDS011;459;48.676;9.034;2022-07-10T06:51:22;4.30;;;3.57;;
944;SDS011;459;48.676;9.034;2022-07-10T06:53:47;7.37;;;4.10;;
944;SDS011;459;48.676;9.034;2022-07-10T06:56:12;6.37;;;3.27;;
944;SDS011;459;48.676;9.034;2022-07-10T06:58:40;3.87;;;3.57;;
944;SDS011;459;48.676;9.034;2022-07-10T07:01:05;3.80;;;2.93;;
944;SDS011;459;48.676;9.034;2022-07-10T07:03:33;7.40;;;3.50;;
944;SDS011;459;48.676;9.034;2022-07-10T07:05:59;4.27;;;2.93;;
944;SDS011;459;48.676;9.034;2022-07-10T07:08:24;4.03;;;2.80;;
944;SDS011;459;48.676;9.034;2022-07-10T07:10:49;5.53;;;3.90;;
944;SDS011;459;48.676;9.034;2022-07-10T07:13:14;4.13;;;3.03;;
944;SDS011;459;48.676;9.034;2022-07-10T07:15:40;6.70;;;2.87;;
944;SDS011;459;48.676;9.034;2022-07-10T07:18:11;2.70;;;2.47;;
944;SDS011;459;48.676;9.034;2022-07-10T07:20:38;4.13;;;3.40;;
944;SDS011;459;48.676;9.034;2022-07-10T07:23:22;6.17;;;2.97;;
944;SDS011;459;48.676;9.034;2022-07-10T07:25:48;9.23;;;3.77;;
944;SDS011;459;48.676;9.034;2022-07-10T07:28:16;3.00;;;2.70;;
944;SDS011;459;48.676;9.034;2022-07-10T07:30:43;4.33;;;2.87;;
944;SDS011;459;48.676;9.034;2022-07-10T07:33:08;5.67;;;2.80;;
944;SDS011;459;48.676;9.034;2022-07-10T07:35:34;3.00;;;2.70;;
944;SDS011;459;48.676;9.034;2022-07-10T07:38:00;2.70;;;2.33;;
944;SDS011;459;48.676;9.034;2022-07-10T07:40:26;2.93;;;2.23;;
944;SDS011;459;48.676;9.034;2022-07-10T07:42:51;3.83;;;2.60;;
944;SDS011;459;48.676;9.034;2022-07-10T07:45:18;3.00;;;2.50;;
944;SDS011;459;48.676;9.034;2022-07-10T07:47:44;3.90;;;2.30;;
944;SDS011;459;48.676;9.034;2022-07-10T07:50:10;7.07;;;3.63;;
944;SDS011;459;48.676;9.034;2022-07-10T07:52:35;7.87;;;3.30;;
944;SDS011;459;48.676;9.034;2022-07-10T07:55:00;3.30;;;2.73;;
944;SDS011;459;48.676;9.034;2022-07-10T07:57:26;3.00;;;2.70;;
944;SDS011;459;48.676;9.034;2022-07-10T07:59:51;2.40;;;2.13;;
944;SDS011;459;48.676;9.034;2022-07-10T08:02:16;3.70;;;2.70;;
944;SDS011;459;48.676;9.034;2022-07-10T08:04:41;6.57;;;2.47;;
944;SDS011;459;48.676;9.034;2022-07-10T08:07:06;2.60;;;2.40;;
944;SDS011;459;48.676;9.034;2022-07-10T08:09:31;3.57;;;2.23;;
944;SDS011;459;48.676;9.034;2022-07-10T08:11:57;3.60;;;2.63;;
944;SDS011;459;48.676;9.034;2022-07-10T08:14:22;2.80;;;2.30;;
944;SDS011;459;48.676;9.034;2022-07-10T08:16:47;2.93;;;2.63;;
944;SDS011;459;48.676;9.034;2022-07-10T08:19:12;5.13;;;3.20;;
944;SDS011;459;48.676;9.034;2022-07-10T08:21:37;4.50;;;3.20;;
944;SDS011;459;48.676;9.034;2022-07-10T08:24:03;3.90;;;2.63;;
944;SDS011;459;48.676;9.034;2022-07-10T08:26:28;4.47;;;2.00;;
944;SDS011;459;48.676;9.034;2022-07-10T08:28:53;2.50;;;2.10;;
944;SDS011;459;48.676;9.034;2022-07-10T08:31:18;2.30;;;2.10;;
944;SDS011;459;48.676;9.034;2022-07-10T08:33:44;2.60;;;2.33;;
944;SDS011;459;48.676;9.034;2022-07-10T08:36:09;5.73;;;2.50;;
944;SDS011;459;48.676;9.034;2022-07-10T08:38:34;2.63;;;2.30;;
944;SDS011;459;48.676;9.034;2022-07-10T08:41:00;2.93;;;2.10;;
944;SDS011;459;48.676;9.034;2022-07-10T08:43:27;2.53;;;2.33;;
944;SDS011;459;48.676;9.034;2022-07-10T08:45:52;2.70;;;2.23;;
944;SDS011;459;48.676;9.034;2022-07-10T08:48:21;4.23;;;2.87;;
944;SDS011;459;48.676;9.034;2022-07-10T08:50:47;3.23;;;2.67;;
944;SDS011;459;48.676;9.034;2022-07-10T08:53:13;2.87;;;2.20;;
944;SDS011;459;48.676;9.034;2022-07-10T08:55:41;3.43;;;2.57;;
944;SDS011;459;48.676;9.034;2022-07-10T08:58:07;2.83;;;2.63;;
944;SDS011;459;48.676;9.034;2022-07-10T09:00:33;6.93;;;2.93;;
944;SDS011;459;48.676;9.034;2022-07-10T09:02:58;3.90;;;2.97;;
944;SDS011;459;48.676;9.034;2022-07-10T09:05:24;4.13;;;2.73;;
944;SDS011;459;48.676;9.034;2022-07-10T09:07:49;4.17;;;2.40;;
944;SDS011;459;48.676;9.034;2022-07-10T09:10:15;4.40;;;2.70;;
944;SDS011;459;48.676;9.034;2022-07-10T09:12:48;2.63;;;2.43;;
944;SDS011;459;48.676;9.034;2022-07-10T09:15:14;2.40;;;2.20;;
944;SDS011;459;48.676;9.034;2022-07-10T09:17:50;4.00;;;2.30;;
944;SDS011;459;48.676;9.034;2022-07-10T09:20:29;3.60;;;2.70;;
944;SDS011;459;48.676;9.034;2022-07-10T09:22:58;5.20;;;2.37;;
944;SDS011;459;48.676;9.034;2022-07-10T09:25:30;2.37;;;2.17;;
944;SDS011;459;48.676;9.034;2022-07-10T09:27:57;2.50;;;2.30;;
944;SDS011;459;48.676;9.034;2022-07-10T09:30:39;2.67;;;2.43;;
944;SDS011;459;48.676;9.034;2022-07-10T09:35:56;3.43;;;3.13;;
944;SDS011;459;48.676;9.034;2022-07-10T09:46:22;4.43;;;3.20;;
944;SDS011;459;48.676;9.034;2022-07-10T09:48:47;3.00;;;2.77;;
944;SDS011;459;48.676;9.034;2022-07-10T09:51:13;6.70;;;3.70;;
944;SDS011;459;48.676;9.034;2022-07-10T09:53:40;6.80;;;3.30;;
944;SDS011;459;48.676;9.034;2022-07-10T09:56:05;3.97;;;3.17;;
944;SDS011;459;48.676;9.034;2022-07-10T09:58:32;4.40;;;3.00;;
944;SDS011;459;48.676;9.034;2022-07-10T10:01:00;5.17;;;3.00;;
944;SDS011;459;48.676;9.034;2022-07-10T10:03:26;4.80;;;2.90;;
944;SDS011;459;48.676;9.034;2022-07-10T10:08:19;4.77;;;3.13;;
944;SDS011;459;48.676;9.034;2022-07-10T10:10:45;3.43;;;2.47;;
944;SDS011;459;48.676;9.034;2022-07-10T10:13:12;3.43;;;2.63;;
944;SDS011;459;48.676;9.034;2022-07-10T10:15:40;3.77;;;3.37;;
944;SDS011;459;48.676;9.034;2022-07-10T10:18:07;3.70;;;2.83;;
944;SDS011;459;48.676;9.034;2022-07-10T10:20:33;3.50;;;2.80;;
944;SDS011;459;48.676;9.034;2022-07-10T10:23:02;2.73;;;2.50;;
944;SDS011;459;48.676;9.034;2022-07-10T10:25:28;3.13;;;2.83;;
944;SDS011;459;48.676;9.034;2022-07-10T10:27:56;4.63;;;3.30;;
944;SDS011;459;48.676;9.034;2022-07-10T10:30:22;3.70;;;3.40;;
944;SDS011;459;48.676;9.034;2022-07-10T10:32:47;5.33;;;2.67;;
944;SDS011;459;48.676;9.034;2022-07-10T10:35:40;2.50;;;2.30;;
944;SDS011;459;48.676;9.034;2022-07-10T10:37:58;2.53;;;2.33;;
944;SDS011;459;48.676;9.034;2022-07-10T10:40:30;3.07;;;2.37;;
944;SDS011;459;48.676;9.034;2022-07-10T10:42:56;3.90;;;2.77;;
944;SDS011;459;48.676;9.034;2022-07-10T10:47:59;3.50;;;2.57;;
944;SDS011;459;48.676;9.034;2022-07-10T10:50:35;2.70;;;2.50;;
944;SDS011;459;48.676;9.034;2022-07-10T10:53:01;3.50;;;2.57;;
944;SDS011;459;48.676;9.034;2022-07-10T10:55:26;3.03;;;2.50;;
944;SDS011;459;48.676;9.034;2022-07-10T10:57:52;3.97;;;2.97;;
944;SDS011;459;48.676;9.034;2022-07-10T11:00:30;4.00;;;2.60;;
944;SDS011;459;48.676;9.034;2022-07-10T11:03:11;5.47;;;2.40;;
944;SDS011;459;48.676;9.034;2022-07-10T11:08:03;3.00;;;2.53;;
944;SDS011;459;48.676;9.034;2022-07-10T11:15:22;3.23;;;2.27;;
944;SDS011;459;48.676;9.034;2022-07-10T11:17:48;3.10;;;2.20;;
944;SDS011;459;48.676;9.034;2022-07-10T11:20:13;4.03;;;2.70;;
944;SDS011;459;48.676;9.034;2022-07-10T11:25:29;4.97;;;2.73;;
944;SDS011;459;48.676;9.034;2022-07-10T11:30:26;5.87;;;2.53;;
944;SDS011;459;48.676;9.034;2022-07-10T11:32:51;2.47;;;2.27;;
944;SDS011;459;48.676;9.034;2022-07-10T11:35:17;3.73;;;2.50;;
944;SDS011;459;48.676;9.034;2022-07-10T11:37:50;2.60;;;1.90;;
944;SDS011;459;48.676;9.034;2022-07-10T11:40:16;3.93;;;2.17;;
944;SDS011;459;48.676;9.034;2022-07-10T11:42:51;3.20;;;2.20;;
944;SDS011;459;48.676;9.034;2022-07-10T11:45:26;2.33;;;1.90;;
944;SDS011;459;48.676;9.034;2022-07-10T11:47:51;2.50;;;1.67;;
944;SDS011;459;48.676;9.034;2022-07-10T11:50:17;2.40;;;1.97;;
944;SDS011;459;48.676;9.034;2022-07-10T11:52:42;1.77;;;1.60;;
944;SDS011;459;48.676;9.034;2022-07-10T11:55:14;1.63;;;1.50;;
944;SDS011;459;48.676;9.034;2022-07-10T11:57:40;2.23;;;1.60;;
944;SDS011;459;48.676;9.034;2022-07-10T12:00:06;2.10;;;1.47;;
944;SDS011;459;48.676;9.034;2022-07-10T12:02:32;5.33;;;2.03;;
944;SDS011;459;48.676;9.034;2022-07-10T12:04:57;2.30;;;1.77;;
944;SDS011;459;48.676;9.034;2022-07-10T12:07:23;1.80;;;1.57;;
944;SDS011;459;48.676;9.034;2022-07-10T12:09:54;4.00;;;1.73;;
944;SDS011;459;48.676;9.034;2022-07-10T12:12:22;3.77;;;2.30;;
944;SDS011;459;48.676;9.034;2022-07-10T12:14:47;3.20;;;1.93;;
944;SDS011;459;48.676;9.034;2022-07-10T12:17:12;3.33;;;1.70;;
944;SDS011;459;48.676;9.034;2022-07-10T12:19:38;2.60;;;1.30;;
944;SDS011;459;48.676;9.034;2022-07-10T12:22:06;3.17;;;1.60;;
944;SDS011;459;48.676;9.034;2022-07-10T12:24:32;4.33;;;1.40;;
944;SDS011;459;48.676;9.034;2022-07-10T12:26:57;3.87;;;1.57;;
944;SDS011;459;48.676;9.034;2022-07-10T12:29:28;2.30;;;1.77;;
944;SDS011;459;48.676;9.034;2022-07-10T12:31:58;2.07;;;1.33;;
944;SDS011;459;48.676;9.034;2022-07-10T12:37:05;4.03;;;1.40;;
944;SDS011;459;48.676;9.034;2022-07-10T12:39:31;3.67;;;2.03;;
944;SDS011;459;48.676;9.034;2022-07-10T12:42:00;3.50;;;1.30;;
944;SDS011;459;48.676;9.034;2022-07-10T12:44:34;2.70;;;1.30;;
944;SDS011;459;48.676;9.034;2022-07-10T12:47:03;2.07;;;1.27;;
944;SDS011;459;48.676;9.034;2022-07-10T12:49:31;3.13;;;1.70;;
944;SDS011;459;48.676;9.034;2022-07-10T12:52:18;3.03;;;1.57;;
944;SDS011;459;48.676;9.034;2022-07-10T12:54:44;1.97;;;1.20;;
944;SDS011;459;48.676;9.034;2022-07-10T12:57:09;2.60;;;1.27;;
944;SDS011;459;48.676;9.034;2022-07-10T12:59:34;2.57;;;1.40;;
944;SDS011;459;48.676;9.034;2022-07-10T13:02:13;3.53;;;1.27;;
944;SDS011;459;48.676;9.034;2022-07-10T13:04:38;2.47;;;1.33;;
944;SDS011;459;48.676;9.034;2022-07-10T13:07:12;3.50;;;0.90;;
944;SDS011;459;48.676;9.034;2022-07-10T13:09:41;2.13;;;0.83;;
944;SDS011;459;48.676;9.034;2022-07-10T13:12:06;1.10;;;1.00;;
944;SDS011;459;48.676;9.034;2022-07-10T13:14:32;2.47;;;1.30;;
944;SDS011;459;48.676;9.034;2022-07-10T13:16:57;2.60;;;1.00;;
944;SDS011;459;48.676;9.034;2022-07-10T13:19:22;0.90;;;0.80;;
944;SDS011;459;48.676;9.034;2022-07-10T13:21:47;2.43;;;0.90;;
944;SDS011;459;48.676;9.034;2022-07-10T13:24:12;2.37;;;0.87;;
944;SDS011;459;48.676;9.034;2022-07-10T13:26:37;1.90;;;0.90;;
944;SDS011;459;48.676;9.034;2022-07-10T13:29:03;1.50;;;1.10;;
944;SDS011;459;48.676;9.034;2022-07-10T13:31:28;3.00;;;1.20;;
944;SDS011;459;48.676;9.034;2022-07-10T13:33:53;1.90;;;0.90;;
944;SDS011;459;48.676;9.034;2022-07-10T13:36:19;2.60;;;1.30;;
944;SDS011;459;48.676;9.034;2022-07-10T13:38:47;2.80;;;1.10;;
944;SDS011;459;48.676;9.034;2022-07-10T13:41:14;2.00;;;0.90;;
944;SDS011;459;48.676;9.034;2022-07-10T13:43:40;2.07;;;1.03;;
944;SDS011;459;48.676;9.034;2022-07-10T13:46:05;2.13;;;0.80;;
944;SDS011;459;48.676;9.034;2022-07-10T13:48:30;2.43;;;1.20;;
944;SDS011;459;48.676;9.034;2022-07-10T13:51:09;1.73;;;0.90;;
944;SDS011;459;48.676;9.034;2022-07-10T13:53:35;2.40;;;0.97;;
944;SDS011;459;48.676;9.034;2022-07-10T13:56:08;2.20;;;1.23;;
944;SDS011;459;48.676;9.034;2022-07-10T13:58:34;2.33;;;1.13;;
944;SDS011;459;48.676;9.034;2022-07-10T14:00:59;2.10;;;1.07;;
944;SDS011;459;48.676;9.034;2022-07-10T14:03:24;2.80;;;1.20;;
944;SDS011;459;48.676;9.034;2022-07-10T14:05:58;3.93;;;0.80;;
944;SDS011;459;48.676;9.034;2022-07-10T14:08:23;3.20;;;1.00;;
944;SDS011;459;48.676;9.034;2022-07-10T14:10:49;1.80;;;1.17;;
944;SDS011;459;48.676;9.034;2022-07-10T14:13:14;1.43;;;1.00;;
944;SDS011;459;48.676;9.034;2022-07-10T14:15:39;2.90;;;1.07;;
944;SDS011;459;48.676;9.034;2022-07-10T14:18:05;2.07;;;0.87;;
944;SDS011;459;48.676;9.034;2022-07-10T14:20:30;1.00;;;0.80;;
944;SDS011;459;48.676;9.034;2022-07-10T14:23:16;4.20;;;1.63;;
944;SDS011;459;48.676;9.034;2022-07-10T14:25:41;1.80;;;0.90;;
944;SDS011;459;48.676;9.034;2022-07-10T14:28:06;1.93;;;1.30;;
944;SDS011;459;48.676;9.034;2022-07-10T14:30:33;2.33;;;1.20;;
944;SDS011;459;48.676;9.034;2022-07-10T14:32:58;1.90;;;0.97;;
944;SDS011;459;48.676;9.034;2022-07-10T14:35:23;5.00;;;1.20;;
944;SDS011;459;48.676;9.034;2022-07-10T14:37:48;2.60;;;1.00;;
944;SDS011;459;48.676;9.034;2022-07-10T14:40:13;1.63;;;0.97;;
944;SDS011;459;48.676;9.034;2022-07-10T14:42:39;3.20;;;1.33;;
944;SDS011;459;48.676;9.034;2022-07-10T14:45:04;1.70;;;1.03;;
944;SDS011;459;48.676;9.034;2022-07-10T14:47:29;2.73;;;1.20;;
944;SDS011;459;48.676;9.034;2022-07-10T14:49:56;3.70;;;1.40;;
944;SDS011;459;48.676;9.034;2022-07-10T14:52:21;2.70;;;0.97;;
944;SDS011;459;48.676;9.034;2022-07-10T14:54:46;1.93;;;1.30;;
944;SDS011;459;48.676;9.034;2022-07-10T14:57:13;2.70;;;1.03;;
944;SDS011;459;48.676;9.034;2022-07-10T14:59:38;1.57;;;0.87;;
944;SDS011;459;48.676;9.034;2022-07-10T15:02:04;2.93;;;1.10;;
944;SDS011;459;48.676;9.034;2022-07-10T15:04:29;4.07;;;1.20;;
944;SDS011;459;48.676;9.034;2022-07-10T15:07:04;2.63;;;1.13;;
944;SDS011;459;48.676;9.034;2022-07-10T15:09:30;2.27;;;0.90;;
944;SDS011;459;48.676;9.034;2022-07-10T15:11:55;2.10;;;1.07;;
944;SDS011;459;48.676;9.034;2022-07-10T15:14:22;2.57;;;1.20;;
944;SDS011;459;48.676;9.034;2022-07-10T15:16:47;2.30;;;1.00;;
944;SDS011;459;48.676;9.034;2022-07-10T15:19:13;2.07;;;1.13;;
944;SDS011;459;48.676;9.034;2022-07-10T15:21:38;2.63;;;1.00;;
944;SDS011;459;48.676;9.034;2022-07-10T15:24:03;2.00;;;0.90;;
944;SDS011;459;48.676;9.034;2022-07-10T15:26:32;2.20;;;0.97;;
944;SDS011;459;48.676;9.034;2022-07-10T15:28:57;4.90;;;1.17;;
944;SDS011;459;48.676;9.034;2022-07-10T15:31:23;2.40;;;1.17;;
944;SDS011;459;48.676;9.034;2022-07-10T15:33:48;1.97;;;1.10;;
944;SDS011;459;48.676;9.034;2022-07-10T15:36:14;2.20;;;1.10;;
944;SDS011;459;48.676;9.034;2022-07-10T15:38:39;2.40;;;1.03;;
944;SDS011;459;48.676;9.034;2022-07-10T15:41:06;2.13;;;1.40;;
944;SDS011;459;48.676;9.034;2022-07-10T15:43:33;1.23;;;1.00;;
944;SDS011;459;48.676;9.034;2022-07-10T15:46:00;1.83;;;0.97;;
944;SDS011;459;48.676;9.034;2022-07-10T15:48:29;2.33;;;0.80;;
944;SDS011;459;48.676;9.034;2022-07-10T15:53:24;3.87;;;1.27;;
944;SDS011;459;48.676;9.034;2022-07-10T15:55:49;2.03;;;0.77;;
944;SDS011;459;48.676;9.034;2022-07-10T15:58:17;1.30;;;0.80;;
944;SDS011;459;48.676;9.034;2022-07-10T16:00:42;1.07;;;0.90;;
944;SDS011;459;48.676;9.034;2022-07-10T16:03:10;2.23;;;1.40;;
944;SDS011;459;48.676;9.034;2022-07-10T16:05:35;1.63;;;1.00;;
944;SDS011;459;48.676;9.034;2022-07-10T16:08:00;3.50;;;1.50;;
944;SDS011;459;48.676;9.034;2022-07-10T16:10:25;1.97;;;1.13;;